Time;durP1;ratioP1;P1;durP2;ratioP2;P2;SDS_P1;SDS_P2;PMS_P1;PMS_P2;Temp;Humidity;BMP_temperature;BMP_pressure;BME280_temperature;BME280_humidity;BME280_pressure;Samples;Min_cycle;Max_cycle;Signal;HPM_P1;HPM_P2
2021/10/11 00:00:41;;;;;;;28.23;18.52;;;4.20;99.90;;;;;;2122856;27;20015;-70
2021/10/11 00:01:41;;;;;;;28.65;18.63;;;4.10;99.90;;;;;;2122430;27;20056;-70
2021/10/11 00:02:42;;;;;;;29.67;18.23;;;4.10;99.90;;;;;;2122726;27;20055;-69
2021/10/11 00:03:42;;;;;;;29.00;18.92;;;4.10;99.90;;;;;;2122762;27;20493;-69
2021/10/11 00:04:43;;;;;;;29.65;19.02;;;4.10;99.90;;;;;;2122664;27;20031;-70
2021/10/11 00:05:43;;;;;;;28.50;19.10;;;4.00;99.90;;;;;;2122238;27;20038;-70
2021/10/11 00:06:44;;;;;;;29.90;18.60;;;4.00;99.90;;;;;;2122238;27;20026;-69
2021/10/11 00:07:44;;;;;;;28.08;19.20;;;4.00;99.90;;;;;;2122500;27;20462;-70
2021/10/11 00:08:45;;;;;;;31.08;19.25;;;4.00;99.90;;;;;;2122167;27;20027;-69
2021/10/11 00:09:46;;;;;;;27.95;18.50;;;4.00;99.90;;;;;;2122112;27;20019;-69
2021/10/11 00:10:51;;;;;;;30.70;18.17;;;4.00;99.90;;;;;;2122006;27;20077;-69
2021/10/11 00:11:52;;;;;;;33.17;20.52;;;4.00;99.90;;;;;;2122322;27;20019;-69
2021/10/11 00:12:54;;;;;;;29.17;18.95;;;4.00;99.90;;;;;;2122587;27;20497;-69
2021/10/11 00:13:55;;;;;;;28.83;19.25;;;4.00;99.90;;;;;;2122821;27;20081;-69
2021/10/11 00:14:58;;;;;;;30.40;19.33;;;3.90;99.90;;;;;;2122461;27;20099;-70
2021/10/11 00:15:59;;;;;;;29.45;18.83;;;3.90;99.90;;;;;;2122003;27;20694;-69
2021/10/11 00:16:59;;;;;;;28.48;18.83;;;4.00;99.90;;;;;;2122112;27;20039;-68
2021/10/11 00:18:00;;;;;;;28.48;18.65;;;3.90;99.90;;;;;;2122509;27;20026;-69
2021/10/11 00:19:04;;;;;;;29.70;18.85;;;3.90;99.90;;;;;;2121207;27;20067;-68
2021/10/11 00:20:06;;;;;;;31.30;19.02;;;3.90;99.90;;;;;;2121862;27;20041;-70
2021/10/11 00:21:06;;;;;;;27.75;18.95;;;3.90;99.90;;;;;;2122587;27;20019;-69
2021/10/11 00:22:07;;;;;;;29.77;19.33;;;3.90;99.90;;;;;;2122313;27;20023;-71
2021/10/11 00:23:10;;;;;;;28.33;18.35;;;3.90;99.90;;;;;;2122655;27;20035;-71
2021/10/11 00:24:10;;;;;;;27.98;18.95;;;3.90;99.90;;;;;;2122628;27;20057;-69
2021/10/11 00:25:11;;;;;;;27.23;18.58;;;3.90;99.90;;;;;;2121787;27;20034;-72
2021/10/11 00:26:12;;;;;;;29.40;19.15;;;3.80;99.90;;;;;;2113563;28;20131;-71
2021/10/11 00:27:13;;;;;;;30.20;19.55;;;3.80;99.90;;;;;;2113418;28;20070;-70
2021/10/11 00:28:14;;;;;;;28.38;19.00;;;3.80;99.90;;;;;;2113464;28;20016;-71
2021/10/11 00:29:14;;;;;;;31.27;19.27;;;3.80;99.90;;;;;;2121397;27;20028;-71
2021/10/11 00:30:15;;;;;;;28.80;19.15;;;3.80;99.90;;;;;;2122646;27;20062;-71
2021/10/11 00:31:15;;;;;;;29.20;19.33;;;3.80;99.90;;;;;;2122039;27;20062;-72
2021/10/11 00:32:16;;;;;;;29.92;19.48;;;3.80;99.90;;;;;;2122302;27;20274;-72
2021/10/11 00:33:16;;;;;;;28.95;19.88;;;3.80;99.90;;;;;;2121807;27;20117;-69
2021/10/11 00:34:17;;;;;;;30.48;19.73;;;3.70;99.90;;;;;;2122058;27;20129;-71
2021/10/11 00:35:18;;;;;;;31.73;19.67;;;3.70;99.90;;;;;;2122561;27;20095;-72
2021/10/11 00:36:18;;;;;;;28.67;19.00;;;3.70;99.90;;;;;;2121855;27;20516;-72
2021/10/11 00:37:19;;;;;;;28.45;18.85;;;3.70;99.90;;;;;;2122011;27;20062;-70
2021/10/11 00:38:19;;;;;;;30.40;19.65;;;3.70;99.90;;;;;;2122497;27;20035;-72
2021/10/11 00:39:20;;;;;;;29.05;18.60;;;3.70;99.90;;;;;;2121106;27;20023;-72
2021/10/11 00:40:21;;;;;;;30.23;19.48;;;3.70;99.90;;;;;;2121882;27;20031;-72
2021/10/11 00:41:21;;;;;;;27.52;18.75;;;3.70;99.90;;;;;;2121840;27;20204;-72
2021/10/11 00:42:22;;;;;;;28.73;19.08;;;3.60;99.90;;;;;;2122412;27;20404;-73
2021/10/11 00:43:23;;;;;;;28.50;19.75;;;3.60;99.90;;;;;;2122543;27;20444;-71
2021/10/11 00:44:24;;;;;;;31.00;19.67;;;3.60;99.90;;;;;;2122399;27;20031;-72
2021/10/11 00:45:25;;;;;;;28.73;19.58;;;3.60;99.90;;;;;;2122341;27;20041;-72
2021/10/11 00:46:26;;;;;;;29.65;19.85;;;3.60;99.90;;;;;;2122323;27;20023;-72
2021/10/11 00:47:26;;;;;;;29.90;19.67;;;3.60;99.90;;;;;;2122335;27;20038;-72
2021/10/11 00:48:28;;;;;;;30.23;19.48;;;3.60;99.90;;;;;;2122474;27;20039;-71
2021/10/11 00:49:29;;;;;;;29.38;18.88;;;3.50;99.90;;;;;;2121875;27;20080;-72
2021/10/11 00:50:29;;;;;;;31.52;19.85;;;3.50;99.90;;;;;;2122313;27;20432;-71
2021/10/11 00:51:30;;;;;;;30.27;19.58;;;3.50;99.90;;;;;;2121326;27;20148;-72
2021/10/11 00:52:31;;;;;;;31.40;20.25;;;3.50;99.90;;;;;;2121717;27;20027;-72
2021/10/11 00:53:33;;;;;;;32.22;19.65;;;3.50;99.90;;;;;;2122129;27;20058;-71
2021/10/11 00:54:34;;;;;;;30.00;18.52;;;3.50;99.90;;;;;;2122236;27;20023;-70
2021/10/11 00:55:35;;;;;;;30.55;19.80;;;3.40;99.90;;;;;;2122294;27;20054;-71
2021/10/11 00:56:36;;;;;;;30.55;19.23;;;3.50;99.90;;;;;;2122387;27;20023;-71
2021/10/11 00:57:36;;;;;;;30.60;19.52;;;3.40;99.90;;;;;;2121611;27;20026;-71
2021/10/11 00:58:37;;;;;;;30.60;20.08;;;3.40;99.90;;;;;;2121213;27;20058;-70
2021/10/11 00:59:38;;;;;;;31.20;19.90;;;3.40;99.90;;;;;;2122267;27;20080;-71
2021/10/11 01:00:38;;;;;;;30.45;19.80;;;3.40;99.90;;;;;;2122370;27;20056;-71
2021/10/11 01:01:39;;;;;;;29.85;20.42;;;3.40;99.90;;;;;;2121294;27;20751;-72
2021/10/11 01:02:40;;;;;;;30.05;19.35;;;3.40;99.90;;;;;;2112980;28;20020;-70
2021/10/11 01:03:41;;;;;;;30.42;19.88;;;3.40;99.90;;;;;;2121765;27;20114;-72
2021/10/11 01:04:42;;;;;;;30.88;19.50;;;3.40;99.90;;;;;;2122240;27;20035;-71
2021/10/11 01:05:42;;;;;;;29.50;19.83;;;3.40;99.90;;;;;;2122597;27;20019;-70
2021/10/11 01:06:44;;;;;;;33.85;21.95;;;3.30;99.90;;;;;;2122601;27;20591;-71
2021/10/11 01:07:45;;;;;;;34.03;20.95;;;3.40;99.90;;;;;;2122495;27;20080;-69
2021/10/11 01:08:46;;;;;;;33.83;22.30;;;3.30;99.90;;;;;;2122322;27;20045;-68
2021/10/11 01:09:47;;;;;;;34.10;22.48;;;3.30;99.90;;;;;;2122787;27;20141;-68
2021/10/11 01:10:48;;;;;;;34.03;22.20;;;3.30;99.90;;;;;;2122592;27;20110;-70
2021/10/11 01:11:50;;;;;;;35.58;23.48;;;3.30;99.90;;;;;;2121455;27;20031;-69
2021/10/11 01:12:50;;;;;;;36.88;23.45;;;3.30;99.90;;;;;;2121771;27;20096;-69
2021/10/11 01:13:51;;;;;;;38.85;25.10;;;3.30;99.90;;;;;;2121516;27;20039;-69
2021/10/11 01:14:52;;;;;;;39.13;24.98;;;3.30;99.90;;;;;;2121416;27;20027;-69
2021/10/11 01:15:52;;;;;;;37.90;25.95;;;3.30;99.90;;;;;;2122251;27;20066;-68
2021/10/11 01:16:53;;;;;;;39.08;26.23;;;3.30;99.90;;;;;;2122429;27;20049;-66
2021/10/11 01:17:53;;;;;;;39.92;27.13;;;3.30;99.90;;;;;;2122376;27;20525;-68
2021/10/11 01:18:55;;;;;;;42.88;27.45;;;3.30;99.90;;;;;;2121899;27;20385;-68
2021/10/11 01:19:57;;;;;;;40.58;27.38;;;3.20;99.90;;;;;;2122500;27;20032;-69
2021/10/11 01:20:57;;;;;;;40.47;27.10;;;3.30;99.90;;;;;;2122706;27;20035;-69
2021/10/11 01:21:58;;;;;;;42.28;28.40;;;3.30;99.90;;;;;;2122260;27;20023;-69
2021/10/11 01:22:58;;;;;;;46.00;30.40;;;3.30;99.90;;;;;;2123096;27;20027;-69
2021/10/11 01:23:59;;;;;;;46.63;31.08;;;3.30;99.90;;;;;;2123116;27;20058;-68
2021/10/11 01:25:00;;;;;;;44.50;30.98;;;3.30;99.90;;;;;;2122962;27;20047;-68
2021/10/11 01:26:01;;;;;;;44.85;30.48;;;3.20;99.90;;;;;;2122065;27;20076;-67
2021/10/11 01:27:01;;;;;;;46.10;30.80;;;3.30;99.90;;;;;;2121850;27;20027;-67
2021/10/11 01:28:02;;;;;;;46.42;31.77;;;3.20;99.90;;;;;;2121671;27;20072;-68
2021/10/11 01:29:04;;;;;;;45.90;31.33;;;3.20;99.90;;;;;;2120972;27;20108;-68
2021/10/11 01:30:06;;;;;;;45.40;30.15;;;3.30;99.90;;;;;;2121352;27;20030;-68
2021/10/11 01:31:07;;;;;;;46.05;31.15;;;3.20;99.90;;;;;;2122234;27;20503;-70
2021/10/11 01:32:07;;;;;;;47.95;31.15;;;3.30;99.90;;;;;;2121691;27;20092;-68
2021/10/11 01:33:09;;;;;;;43.97;29.40;;;3.30;99.90;;;;;;2122176;27;20034;-68
2021/10/11 01:34:11;;;;;;;46.50;30.40;;;3.20;99.90;;;;;;2121420;27;20015;-68
2021/10/11 01:35:15;;;;;;;46.30;29.45;;;3.20;99.90;;;;;;2121707;27;20122;-67
2021/10/11 01:36:15;;;;;;;44.83;28.65;;;3.20;99.90;;;;;;2122211;27;20436;-68
2021/10/11 01:37:16;;;;;;;41.25;28.00;;;3.20;99.90;;;;;;2123056;27;20027;-68
2021/10/11 01:38:17;;;;;;;44.58;29.08;;;3.20;99.90;;;;;;2122569;27;20035;-70
2021/10/11 01:39:17;;;;;;;47.70;29.15;;;3.20;99.90;;;;;;2121652;27;20019;-71
2021/10/11 01:40:20;;;;;;;45.55;28.60;;;3.20;99.90;;;;;;2122000;28;20053;-71
2021/10/11 01:41:21;;;;;;;45.42;28.52;;;3.20;99.90;;;;;;2121903;27;20039;-70
2021/10/11 01:42:21;;;;;;;44.25;28.48;;;3.20;99.90;;;;;;2122134;27;20031;-70
2021/10/11 01:43:22;;;;;;;44.08;28.58;;;3.20;99.90;;;;;;2122015;28;20050;-71
2021/10/11 01:44:23;;;;;;;44.67;28.92;;;3.20;99.90;;;;;;2121823;27;20106;-71
2021/10/11 01:45:23;;;;;;;48.38;30.17;;;3.20;99.90;;;;;;2122014;28;20513;-70
2021/10/11 01:46:24;;;;;;;42.45;28.00;;;3.20;99.90;;;;;;2121996;28;20103;-70
2021/10/11 01:47:26;;;;;;;40.20;27.13;;;3.20;99.90;;;;;;2122129;27;20053;-71
2021/10/11 01:48:27;;;;;;;41.17;26.63;;;3.20;99.90;;;;;;2122170;27;20034;-71
2021/10/11 01:49:27;;;;;;;39.80;26.35;;;3.20;99.90;;;;;;2121366;28;20024;-70
2021/10/11 01:50:28;;;;;;;39.17;26.60;;;3.20;99.90;;;;;;2121744;28;20686;-70
2021/10/11 01:51:29;;;;;;;39.63;25.88;;;3.20;99.90;;;;;;2121723;28;20019;-71
2021/10/11 01:52:29;;;;;;;41.50;27.02;;;3.20;99.90;;;;;;2122108;28;20027;-70
2021/10/11 01:53:30;;;;;;;40.90;26.60;;;3.10;99.90;;;;;;2121939;28;20092;-71
2021/10/11 01:54:30;;;;;;;39.00;26.27;;;3.10;99.90;;;;;;2122033;28;20110;-71
2021/10/11 01:55:31;;;;;;;42.45;25.80;;;3.10;99.90;;;;;;2122040;27;20023;-69
2021/10/11 01:56:32;;;;;;;38.85;25.58;;;3.10;99.90;;;;;;2121917;27;20545;-70
2021/10/11 01:57:33;;;;;;;40.33;25.48;;;3.10;99.90;;;;;;2121955;28;20730;-71
2021/10/11 01:58:33;;;;;;;37.67;24.35;;;3.10;99.90;;;;;;2121477;28;20102;-69
2021/10/11 01:59:34;;;;;;;37.55;24.92;;;3.10;99.90;;;;;;2122152;28;20094;-71
2021/10/11 02:00:35;;;;;;;39.58;24.73;;;3.10;99.90;;;;;;2122045;27;20033;-70
2021/10/11 02:01:36;;;;;;;38.03;23.92;;;3.10;99.90;;;;;;2121793;27;20054;-70
2021/10/11 02:02:37;;;;;;;42.38;26.23;;;3.10;99.90;;;;;;2121899;28;20024;-70
2021/10/11 02:03:37;;;;;;;38.13;24.38;;;3.10;99.90;;;;;;2121934;28;20027;-70
2021/10/11 02:04:38;;;;;;;40.47;24.02;;;3.10;99.90;;;;;;2121895;28;20047;-71
2021/10/11 02:05:39;;;;;;;37.72;23.65;;;3.10;99.90;;;;;;2121976;28;20098;-71
2021/10/11 02:06:39;;;;;;;34.97;22.65;;;3.10;99.90;;;;;;2122030;27;20035;-71
2021/10/11 02:07:40;;;;;;;37.67;23.48;;;3.10;99.90;;;;;;2121909;28;20034;-70
2021/10/11 02:08:41;;;;;;;36.03;23.13;;;3.10;99.90;;;;;;2121356;27;20825;-71
2021/10/11 02:09:41;;;;;;;36.40;23.15;;;3.10;99.90;;;;;;2121984;27;20031;-68
2021/10/11 02:10:42;;;;;;;36.58;22.90;;;3.10;99.90;;;;;;2122190;27;20031;-69
2021/10/11 02:11:42;;;;;;;33.83;22.83;;;3.10;99.90;;;;;;2121579;27;20105;-68
2021/10/11 02:12:43;;;;;;;33.75;22.25;;;3.10;99.90;;;;;;2122232;27;20030;-68
2021/10/11 02:13:44;;;;;;;37.58;23.23;;;3.10;99.90;;;;;;2122466;28;20037;-68
2021/10/11 02:14:45;;;;;;;33.22;21.70;;;3.10;99.90;;;;;;2121945;28;20026;-67
2021/10/11 02:15:46;;;;;;;33.33;21.67;;;3.10;99.90;;;;;;2113273;28;20088;-71
2021/10/11 02:16:46;;;;;;;33.67;22.08;;;3.10;99.90;;;;;;2122077;28;20024;-68
2021/10/11 02:17:47;;;;;;;36.50;22.42;;;3.00;99.90;;;;;;2122220;28;20103;-68
2021/10/11 02:18:48;;;;;;;36.15;21.85;;;3.10;99.90;;;;;;2113080;28;20474;-67
2021/10/11 02:19:48;;;;;;;33.08;22.15;;;3.10;99.90;;;;;;2121158;28;20084;-68
2021/10/11 02:20:49;;;;;;;35.17;21.88;;;3.00;99.90;;;;;;2122004;27;20038;-67
2021/10/11 02:21:52;;;;;;;36.25;22.10;;;3.10;99.90;;;;;;2121484;27;20046;-68
2021/10/11 02:22:53;;;;;;;36.03;22.35;;;3.00;99.90;;;;;;2122036;28;20102;-68
2021/10/11 02:23:53;;;;;;;34.35;22.05;;;3.10;99.90;;;;;;2121965;28;20038;-68
2021/10/11 02:24:54;;;;;;;35.22;21.40;;;3.00;99.90;;;;;;2121816;28;20028;-69
2021/10/11 02:25:54;;;;;;;33.00;21.33;;;3.00;99.90;;;;;;2121096;28;20027;-69
2021/10/11 02:26:55;;;;;;;32.65;20.77;;;3.00;99.90;;;;;;2121308;28;20037;-68
2021/10/11 02:27:57;;;;;;;35.95;22.33;;;3.00;99.90;;;;;;2121688;27;20042;-70
2021/10/11 02:28:57;;;;;;;34.47;21.73;;;3.00;99.90;;;;;;2121624;27;20035;-67
2021/10/11 02:29:58;;;;;;;34.30;22.52;;;3.00;99.90;;;;;;2122041;28;20059;-68
2021/10/11 02:30:59;;;;;;;36.13;22.67;;;3.00;99.90;;;;;;2122211;27;20023;-68
2021/10/11 02:32:00;;;;;;;34.20;21.15;;;3.00;99.90;;;;;;2121544;28;20082;-68
2021/10/11 02:33:01;;;;;;;33.78;21.83;;;3.00;99.90;;;;;;2121745;28;20049;-69
2021/10/11 02:34:01;;;;;;;32.42;20.55;;;3.00;99.90;;;;;;2121745;28;20034;-68
2021/10/11 02:35:05;;;;;;;34.40;21.02;;;3.00;99.90;;;;;;2121848;27;20027;-69
2021/10/11 02:36:07;;;;;;;34.78;21.17;;;3.00;99.90;;;;;;2121770;27;20085;-69
2021/10/11 02:37:08;;;;;;;34.00;20.95;;;3.00;99.90;;;;;;2121102;28;20432;-68
2021/10/11 02:38:08;;;;;;;33.20;21.15;;;3.00;99.90;;;;;;2112861;28;20032;-68
2021/10/11 02:39:09;;;;;;;34.70;20.75;;;3.00;99.90;;;;;;2120772;27;20025;-68
2021/10/11 02:40:11;;;;;;;34.50;21.25;;;3.00;99.90;;;;;;2121731;27;20023;-69
2021/10/11 02:41:12;;;;;;;33.08;22.00;;;3.00;99.90;;;;;;2121787;28;20034;-68
2021/10/11 02:42:12;;;;;;;33.88;21.25;;;3.00;99.90;;;;;;2121662;28;20027;-68
2021/10/11 02:43:16;;;;;;;34.00;21.20;;;2.90;99.90;;;;;;2121766;27;20050;-69
2021/10/11 02:44:17;;;;;;;34.95;22.13;;;2.90;99.90;;;;;;2121794;27;20545;-69
2021/10/11 02:45:17;;;;;;;35.58;22.45;;;2.90;99.90;;;;;;2121883;27;20058;-67
2021/10/11 02:46:18;;;;;;;34.10;21.40;;;2.90;99.90;;;;;;2121034;27;20063;-69
2021/10/11 02:47:19;;;;;;;34.38;21.33;;;2.90;99.90;;;;;;2121186;28;20122;-68
2021/10/11 02:48:20;;;;;;;33.95;20.98;;;2.90;99.90;;;;;;2121708;28;20045;-68
2021/10/11 02:49:20;;;;;;;34.38;21.42;;;2.90;99.90;;;;;;2121193;27;20163;-68
2021/10/11 02:50:21;;;;;;;36.50;21.75;;;2.90;99.90;;;;;;2121715;28;20139;-69
2021/10/11 02:51:21;;;;;;;34.00;21.77;;;2.90;99.90;;;;;;2120828;27;20106;-68
2021/10/11 02:52:22;;;;;;;34.10;21.67;;;2.90;99.90;;;;;;2121321;28;20343;-68
2021/10/11 02:53:23;;;;;;;36.58;21.67;;;2.90;99.90;;;;;;2121235;28;20071;-68
2021/10/11 02:54:23;;;;;;;36.10;21.73;;;2.90;99.90;;;;;;2121030;28;20023;-68
2021/10/11 02:55:24;;;;;;;34.55;22.23;;;3.00;99.90;;;;;;2121945;27;20027;-68
2021/10/11 02:56:24;;;;;;;36.05;22.73;;;2.90;99.90;;;;;;2121486;27;20019;-67
2021/10/11 02:57:25;;;;;;;35.40;22.10;;;2.90;99.90;;;;;;2123267;27;20468;-68
2021/10/11 02:58:26;;;;;;;34.45;22.17;;;2.90;99.90;;;;;;2123455;27;20104;-68
2021/10/11 02:59:26;;;;;;;34.67;21.95;;;2.90;99.90;;;;;;2122249;27;20027;-68
2021/10/11 03:00:27;;;;;;;35.17;22.30;;;2.90;99.90;;;;;;2122672;27;20789;-67
2021/10/11 03:01:27;;;;;;;34.65;22.27;;;3.00;99.90;;;;;;2122921;27;20034;-70
2021/10/11 03:02:28;;;;;;;33.55;21.67;;;2.90;99.90;;;;;;2123203;27;20038;-68
2021/10/11 03:03:28;;;;;;;35.42;22.15;;;2.90;99.90;;;;;;2123210;27;20026;-67
2021/10/11 03:04:29;;;;;;;39.25;23.20;;;2.90;99.90;;;;;;2123179;27;20019;-68
2021/10/11 03:05:30;;;;;;;36.50;22.83;;;2.90;99.90;;;;;;2123240;27;20042;-67
2021/10/11 03:06:30;;;;;;;36.35;23.10;;;2.90;99.90;;;;;;2122693;27;20474;-68
2021/10/11 03:07:31;;;;;;;35.33;22.55;;;2.90;99.90;;;;;;2122771;27;20023;-68
2021/10/11 03:08:33;;;;;;;36.42;23.10;;;2.90;99.90;;;;;;2122653;27;20054;-71
2021/10/11 03:09:33;;;;;;;36.47;22.73;;;2.90;99.90;;;;;;2123067;27;20174;-70
2021/10/11 03:10:34;;;;;;;39.83;23.88;;;2.90;99.90;;;;;;2123226;27;20565;-67
2021/10/11 03:11:35;;;;;;;40.17;23.77;;;3.00;99.90;;;;;;2122712;27;20087;-68
2021/10/11 03:12:35;;;;;;;38.75;24.40;;;3.00;99.90;;;;;;2123364;27;20065;-68
2021/10/11 03:13:36;;;;;;;40.22;24.98;;;3.00;99.90;;;;;;2123268;27;20504;-68
2021/10/11 03:14:37;;;;;;;39.20;24.10;;;3.00;99.90;;;;;;2123175;27;20490;-68
2021/10/11 03:15:37;;;;;;;39.58;24.75;;;3.00;99.90;;;;;;2123082;27;20023;-68
2021/10/11 03:16:38;;;;;;;40.35;24.20;;;3.00;99.90;;;;;;2123120;27;20057;-68
2021/10/11 03:17:38;;;;;;;38.67;24.73;;;3.00;99.90;;;;;;2122972;27;20033;-70
2021/10/11 03:18:39;;;;;;;42.15;25.27;;;3.00;99.90;;;;;;2122620;27;20055;-70
2021/10/11 03:19:40;;;;;;;38.97;24.10;;;3.00;99.90;;;;;;2123066;27;20027;-70
2021/10/11 03:20:40;;;;;;;37.33;24.40;;;3.00;99.90;;;;;;2123177;27;20098;-70
2021/10/11 03:21:41;;;;;;;41.72;24.45;;;3.00;99.90;;;;;;2122862;27;20480;-70
2021/10/11 03:22:42;;;;;;;40.30;25.30;;;3.00;99.90;;;;;;2122325;27;20034;-70
2021/10/11 03:23:42;;;;;;;42.05;25.75;;;3.00;99.90;;;;;;2122439;27;20072;-70
2021/10/11 03:24:43;;;;;;;40.15;24.55;;;3.00;99.90;;;;;;2123012;27;20467;-71
2021/10/11 03:25:43;;;;;;;44.03;25.80;;;3.00;99.90;;;;;;2123174;27;20416;-71
2021/10/11 03:26:44;;;;;;;43.60;25.67;;;3.00;99.90;;;;;;2123309;27;20046;-70
2021/10/11 03:27:44;;;;;;;37.55;24.48;;;3.00;99.90;;;;;;2123268;27;20039;-70
2021/10/11 03:28:46;;;;;;;38.90;24.40;;;3.00;99.90;;;;;;2122678;27;20109;-70
2021/10/11 03:29:46;;;;;;;41.47;24.42;;;3.00;99.90;;;;;;2122597;27;20559;-70
2021/10/11 03:30:47;;;;;;;36.72;23.95;;;3.00;99.90;;;;;;2122382;27;20056;-71
2021/10/11 03:31:48;;;;;;;38.53;23.77;;;3.00;99.90;;;;;;2122125;27;20019;-71
2021/10/11 03:32:48;;;;;;;37.95;23.55;;;3.00;99.90;;;;;;2123059;27;20095;-72
2021/10/11 03:33:49;;;;;;;36.83;23.20;;;3.00;99.90;;;;;;2123066;27;20035;-70
2021/10/11 03:34:49;;;;;;;35.80;22.80;;;3.00;99.90;;;;;;2122996;27;20538;-70
2021/10/11 03:35:50;;;;;;;37.00;23.10;;;3.00;99.90;;;;;;2122985;27;20105;-70
2021/10/11 03:36:50;;;;;;;39.20;23.73;;;3.00;99.90;;;;;;2123009;27;20029;-69
2021/10/11 03:37:51;;;;;;;37.95;24.30;;;3.00;99.90;;;;;;2122925;27;20034;-71
2021/10/11 03:38:53;;;;;;;38.50;24.05;;;3.00;99.90;;;;;;2122509;27;20027;-70
2021/10/11 03:39:53;;;;;;;38.15;23.70;;;3.00;99.90;;;;;;2122746;27;20015;-71
2021/10/11 03:40:54;;;;;;;38.70;23.27;;;3.00;99.90;;;;;;2122789;27;20092;-70
2021/10/11 03:41:54;;;;;;;40.00;24.25;;;3.00;99.90;;;;;;2122486;27;20110;-71
2021/10/11 03:42:55;;;;;;;38.15;23.65;;;3.00;99.90;;;;;;2122945;27;20236;-71
2021/10/11 03:43:56;;;;;;;39.95;24.27;;;3.00;99.90;;;;;;2122142;27;20103;-70
2021/10/11 03:44:56;;;;;;;38.88;23.50;;;3.00;99.90;;;;;;2122082;27;20031;-71
2021/10/11 03:45:58;;;;;;;42.08;24.85;;;3.00;99.90;;;;;;2122901;27;20065;-70
2021/10/11 03:46:58;;;;;;;39.60;25.05;;;3.00;99.90;;;;;;2122809;27;20080;-71
2021/10/11 03:47:59;;;;;;;42.17;25.27;;;3.00;99.90;;;;;;2122937;27;20432;-70
2021/10/11 03:49:02;;;;;;;42.53;24.92;;;3.00;99.90;;;;;;2121699;27;20035;-71
2021/10/11 03:50:03;;;;;;;42.22;25.98;;;3.10;99.90;;;;;;2122509;27;20055;-71
2021/10/11 03:51:03;;;;;;;40.83;24.88;;;3.00;99.90;;;;;;2122813;27;20027;-70
2021/10/11 03:52:04;;;;;;;43.58;26.30;;;3.00;99.90;;;;;;2122846;27;20052;-71
2021/10/11 03:53:05;;;;;;;41.33;24.52;;;3.00;99.90;;;;;;2122148;27;20035;-71
2021/10/11 03:54:06;;;;;;;38.47;24.60;;;3.10;99.90;;;;;;2122519;27;20039;-71
2021/10/11 03:55:08;;;;;;;44.92;25.98;;;3.10;99.90;;;;;;2123079;27;20027;-71
2021/10/11 03:56:08;;;;;;;44.83;26.75;;;3.10;99.90;;;;;;2123326;27;20026;-71
2021/10/11 03:57:09;;;;;;;50.20;28.63;;;3.30;99.90;;;;;;2123099;27;20053;-71
2021/10/11 03:58:10;;;;;;;47.67;27.33;;;3.50;99.90;;;;;;2122245;27;20498;-70
2021/10/11 03:59:11;;;;;;;47.05;26.10;;;3.60;99.90;;;;;;2121510;27;20027;-71
2021/10/11 04:00:12;;;;;;;44.50;26.70;;;3.70;99.90;;;;;;2123052;27;20072;-71
2021/10/11 04:01:13;;;;;;;40.85;25.83;;;3.80;99.90;;;;;;2123049;27;20091;-70
2021/10/11 04:02:14;;;;;;;42.47;26.10;;;3.90;99.90;;;;;;2122928;27;20098;-70
2021/10/11 04:03:15;;;;;;;39.13;24.88;;;3.90;99.90;;;;;;2123430;27;20114;-71
2021/10/11 04:04:16;;;;;;;39.40;24.75;;;4.00;99.90;;;;;;2123610;27;20039;-70
2021/10/11 04:05:17;;;;;;;40.85;24.35;;;4.10;99.90;;;;;;2123235;27;20030;-71
2021/10/11 04:06:17;;;;;;;44.10;25.02;;;4.10;99.90;;;;;;2123357;27;20029;-71
2021/10/11 04:07:19;;;;;;;39.50;24.60;;;4.10;99.90;;;;;;2124024;27;20061;-71
2021/10/11 04:08:21;;;;;;;41.45;24.63;;;4.10;99.90;;;;;;2123626;27;20011;-70
2021/10/11 04:09:27;;;;;;;40.10;24.60;;;4.10;99.90;;;;;;2122166;27;20478;-69
2021/10/11 04:10:32;;;;;;;38.50;24.00;;;4.20;99.90;;;;;;2122751;27;20068;-71
2021/10/11 04:11:33;;;;;;;40.65;23.83;;;4.20;99.90;;;;;;2122254;27;20042;-71
2021/10/11 04:12:38;;;;;;;37.15;23.63;;;4.20;99.90;;;;;;2122673;27;20038;-69
2021/10/11 04:13:39;;;;;;;41.80;24.05;;;4.20;99.90;;;;;;2122732;27;20046;-71
2021/10/11 04:14:39;;;;;;;43.85;25.00;;;4.30;99.90;;;;;;2122640;27;20501;-71
2021/10/11 04:15:40;;;;;;;43.42;24.17;;;4.50;99.90;;;;;;2122668;27;20467;-69
2021/10/11 04:16:40;;;;;;;39.33;23.73;;;4.50;99.90;;;;;;2122670;27;20474;-70
2021/10/11 04:17:41;;;;;;;35.95;23.23;;;4.50;99.90;;;;;;2122496;27;20517;-71
2021/10/11 04:18:42;;;;;;;36.28;22.00;;;4.40;99.90;;;;;;2122214;27;20027;-70
2021/10/11 04:19:42;;;;;;;37.50;22.92;;;4.30;99.90;;;;;;2122576;27;20468;-70
2021/10/11 04:20:44;;;;;;;38.85;23.00;;;4.20;99.90;;;;;;2121877;27;20019;-70
2021/10/11 04:21:44;;;;;;;34.58;21.92;;;4.10;99.90;;;;;;2121820;27;20050;-70
2021/10/11 04:22:45;;;;;;;33.75;22.20;;;4.00;99.90;;;;;;2122640;27;20072;-71
2021/10/11 04:23:46;;;;;;;36.05;22.98;;;3.90;99.90;;;;;;2122603;27;20088;-71
2021/10/11 04:24:46;;;;;;;35.88;21.80;;;3.80;99.90;;;;;;2122650;27;20034;-70
2021/10/11 04:25:47;;;;;;;35.53;22.48;;;3.80;99.90;;;;;;2122655;27;20393;-70
2021/10/11 04:26:47;;;;;;;35.65;22.02;;;3.70;99.90;;;;;;2122534;27;20027;-70
2021/10/11 04:27:48;;;;;;;34.10;21.83;;;3.60;99.90;;;;;;2122442;27;20058;-69
2021/10/11 04:28:49;;;;;;;36.80;22.15;;;3.60;99.90;;;;;;2122221;27;20019;-71
2021/10/11 04:29:49;;;;;;;34.13;22.33;;;3.50;99.90;;;;;;2122455;27;20037;-71
2021/10/11 04:30:50;;;;;;;36.70;22.90;;;3.50;99.90;;;;;;2121934;27;20035;-71
2021/10/11 04:31:51;;;;;;;40.70;23.70;;;3.50;99.90;;;;;;2121694;27;20061;-71
2021/10/11 04:32:51;;;;;;;35.65;22.45;;;3.40;99.90;;;;;;2122543;27;20027;-71
2021/10/11 04:33:52;;;;;;;37.63;22.73;;;3.40;99.90;;;;;;2122357;27;20019;-71
2021/10/11 04:34:53;;;;;;;35.78;22.77;;;3.40;99.90;;;;;;2122566;27;20030;-70
2021/10/11 04:35:53;;;;;;;35.88;22.52;;;3.40;99.90;;;;;;2122466;27;20019;-70
2021/10/11 04:36:54;;;;;;;38.47;22.65;;;3.30;99.90;;;;;;2122538;27;20416;-71
2021/10/11 04:37:55;;;;;;;36.58;22.98;;;3.30;99.90;;;;;;2122504;27;20027;-69
2021/10/11 04:38:55;;;;;;;35.05;22.45;;;3.30;99.90;;;;;;2122046;27;20051;-70
2021/10/11 04:39:56;;;;;;;38.78;23.38;;;3.30;99.90;;;;;;2122113;27;20489;-71
2021/10/11 04:40:56;;;;;;;35.28;22.40;;;3.20;99.90;;;;;;2122378;27;20015;-71
2021/10/11 04:41:57;;;;;;;33.70;21.40;;;3.20;99.90;;;;;;2121879;27;20075;-71
2021/10/11 04:42:58;;;;;;;36.78;22.50;;;3.20;99.90;;;;;;2122419;27;20164;-71
2021/10/11 04:43:58;;;;;;;38.05;23.05;;;3.20;99.90;;;;;;2122508;27;20122;-71
2021/10/11 04:44:59;;;;;;;35.72;22.92;;;3.20;99.90;;;;;;2122436;27;20133;-70
2021/10/11 04:46:00;;;;;;;38.70;23.20;;;3.20;99.90;;;;;;2122552;27;20031;-71
2021/10/11 04:47:00;;;;;;;37.38;22.90;;;3.10;99.90;;;;;;2122470;27;20112;-71
2021/10/11 04:48:04;;;;;;;36.63;23.38;;;3.10;99.90;;;;;;2122342;27;20062;-70
2021/10/11 04:49:05;;;;;;;41.72;23.52;;;3.10;99.90;;;;;;2121628;27;20037;-71
2021/10/11 04:50:06;;;;;;;36.42;22.23;;;3.10;99.90;;;;;;2122368;27;20039;-72
2021/10/11 04:51:07;;;;;;;35.58;22.05;;;3.10;99.90;;;;;;2122351;27;20066;-69
2021/10/11 04:52:08;;;;;;;38.15;23.30;;;3.10;99.90;;;;;;2122082;27;20019;-72
2021/10/11 04:53:09;;;;;;;36.97;23.27;;;3.10;99.90;;;;;;2122415;27;20490;-71
2021/10/11 04:54:09;;;;;;;38.47;23.27;;;3.10;99.90;;;;;;2122303;27;20076;-70
2021/10/11 04:55:10;;;;;;;38.22;22.83;;;3.00;99.90;;;;;;2122408;27;20019;-71
2021/10/11 04:56:10;;;;;;;37.17;22.35;;;3.00;99.90;;;;;;2122592;27;20614;-70
2021/10/11 04:57:11;;;;;;;36.88;23.45;;;3.00;99.90;;;;;;2122262;27;20379;-71
2021/10/11 04:58:11;;;;;;;38.08;23.63;;;3.00;99.90;;;;;;2122368;27;20106;-70
2021/10/11 04:59:12;;;;;;;40.05;22.70;;;3.00;99.90;;;;;;2121743;27;20464;-71
2021/10/11 05:00:13;;;;;;;38.25;22.90;;;3.00;99.90;;;;;;2122213;27;20049;-71
2021/10/11 05:01:16;;;;;;;38.90;23.90;;;3.10;99.90;;;;;;2121986;27;20069;-71
2021/10/11 05:02:16;;;;;;;40.75;23.42;;;3.00;99.90;;;;;;2121683;27;20091;-72
2021/10/11 05:03:17;;;;;;;39.78;23.30;;;3.00;99.90;;;;;;2121673;27;20023;-70
2021/10/11 05:04:18;;;;;;;44.15;24.02;;;3.00;99.90;;;;;;2122092;27;20667;-71
2021/10/11 05:05:18;;;;;;;41.25;24.45;;;3.10;99.90;;;;;;2122515;27;20104;-71
2021/10/11 05:06:19;;;;;;;40.00;23.95;;;3.00;99.90;;;;;;2122287;27;20160;-70
2021/10/11 05:07:19;;;;;;;40.42;23.23;;;3.10;99.90;;;;;;2122229;27;20023;-70
2021/10/11 05:08:20;;;;;;;41.95;23.17;;;3.00;99.90;;;;;;2122222;27;20135;-72
2021/10/11 05:09:21;;;;;;;39.20;23.88;;;3.10;99.90;;;;;;2121444;27;20034;-72
2021/10/11 05:10:21;;;;;;;39.33;23.35;;;3.10;99.90;;;;;;2122263;27;20031;-70
2021/10/11 05:11:22;;;;;;;40.22;23.55;;;3.10;99.90;;;;;;2121054;27;20019;-71
2021/10/11 05:12:22;;;;;;;39.45;23.30;;;3.10;99.90;;;;;;2121310;27;20039;-72